createdAt,value
2023-01-02T00:00:32.607Z,10.38
2023-01-02T00:00:54.997Z,10.38
2023-01-02T00:01:17.720Z,10.38
2023-01-02T00:01:52.420Z,10.38
2023-01-02T00:02:25.442Z,10.38
2023-01-02T00:02:56.597Z,10.38
2023-01-02T00:03:26.277Z,10.38
2023-01-02T00:03:57.596Z,10.38
2023-01-02T00:04:33.946Z,10.38
2023-01-02T00:04:56.185Z,10.38
2023-01-02T00:05:18.813Z,10.38
2023-01-02T00:05:52.399Z,10.38
2023-01-02T00:06:24.412Z,10.38
2023-01-02T00:06:56.787Z,10.38
2023-01-02T00:07:26.056Z,10.38
2023-01-02T00:07:57.750Z,10.38
2023-01-02T00:08:33.039Z,10.38
2023-01-02T00:08:55.420Z,10.50
2023-01-02T00:09:18.576Z,10.50
2023-01-02T00:09:52.359Z,10.50
2023-01-02T00:10:24.727Z,10.50
2023-01-02T00:10:56.499Z,10.38
2023-01-02T00:11:26.167Z,10.38
2023-01-02T00:11:57.670Z,10.38
2023-01-02T00:12:33.459Z,10.38
2023-01-02T00:12:55.927Z,10.38
2023-01-02T00:13:18.294Z,10.38
2023-01-02T00:13:53.129Z,10.50
2023-01-02T00:14:25.183Z,10.50
2023-01-02T00:14:56.485Z,10.50
2023-01-02T00:15:26.199Z,10.27
2023-01-02T00:15:57.526Z,10.27
2023-01-02T00:16:32.532Z,10.38
2023-01-02T00:16:54.965Z,10.38
2023-01-02T00:17:18.422Z,10.38
2023-01-02T00:17:52.347Z,10.38
2023-01-02T00:18:24.527Z,10.38
2023-01-02T00:18:56.634Z,10.38
2023-01-02T00:19:25.962Z,10.38
2023-01-02T00:19:57.970Z,10.38
2023-01-02T00:20:33.371Z,10.27
2023-01-02T00:20:55.949Z,10.27
2023-01-02T00:21:19.742Z,10.27
2023-01-02T00:21:53.249Z,10.27
2023-01-02T00:22:25.310Z,10.27
2023-01-02T00:22:56.995Z,10.27
2023-01-02T00:23:28.372Z,10.27
2023-01-02T00:24:01.640Z,10.27
2023-01-02T00:24:32.280Z,10.27
2023-01-02T00:24:54.863Z,10.27
2023-01-02T00:25:17.306Z,10.38
2023-01-02T00:25:53.169Z,10.38
2023-01-02T00:26:25.174Z,10.38
2023-01-02T00:26:56.183Z,10.38
2023-01-02T00:27:25.822Z,10.38
2023-01-02T00:27:57.503Z,10.38
2023-01-02T00:28:32.633Z,10.38
2023-01-02T00:28:55.360Z,10.38
2023-01-02T00:29:18.178Z,10.38
2023-01-02T00:29:52.606Z,10.38
2023-01-02T00:30:24.447Z,10.38
2023-01-02T00:30:56.566Z,10.38
2023-01-02T00:31:25.967Z,10.38
2023-01-02T00:31:57.830Z,10.38
2023-01-02T00:32:35.857Z,10.38
2023-01-02T00:32:56.003Z,10.38
2023-01-02T00:33:19.000Z,10.38
2023-01-02T00:33:52.571Z,10.38
2023-01-02T00:34:25.237Z,10.38
2023-01-02T00:34:56.284Z,10.38
2023-01-02T00:35:26.415Z,10.38
2023-01-02T00:35:57.778Z,10.38
2023-01-02T00:36:32.238Z,10.38
2023-01-02T00:36:54.800Z,10.38
2023-01-02T00:37:17.188Z,10.38
2023-01-02T00:37:52.340Z,10.38
2023-01-02T00:38:24.484Z,10.38
2023-01-02T00:38:57.321Z,10.38
2023-01-02T00:39:29.592Z,10.38
2023-01-02T00:40:00.581Z,10.38
2023-01-02T00:40:32.464Z,10.38
2023-01-02T00:40:55.021Z,10.38
2023-01-02T00:41:17.783Z,10.38
2023-01-02T00:41:52.690Z,10.38
2023-01-02T00:42:24.392Z,10.38
2023-01-02T00:42:56.222Z,10.38
2023-01-02T00:43:26.127Z,10.38
2023-01-02T00:43:57.796Z,10.38
2023-01-02T00:44:32.803Z,10.38
2023-01-02T00:44:55.403Z,10.38
2023-01-02T00:45:17.897Z,10.38
2023-01-02T00:45:52.606Z,10.38
2023-01-02T00:46:24.934Z,10.38
2023-01-02T00:46:56.503Z,10.38
2023-01-02T00:47:26.086Z,10.38
2023-01-02T00:47:58.319Z,10.38
2023-01-02T00:48:32.230Z,10.38
2023-01-02T00:48:54.910Z,10.38
2023-01-02T00:49:17.837Z,10.38
2023-01-02T00:49:52.363Z,10.38
2023-01-02T00:50:24.633Z,10.27
2023-01-02T00:50:56.355Z,10.27
2023-01-02T00:51:25.874Z,10.27
2023-01-02T00:51:57.448Z,10.27
2023-01-02T00:52:32.464Z,10.27
2023-01-02T00:53:00.607Z,10.27
2023-01-02T00:53:17.627Z,10.27
2023-01-02T00:54:00.281Z,10.27
2023-01-02T00:54:23.154Z,10.27
2023-01-02T00:54:56.224Z,10.27
2023-01-02T00:55:25.843Z,10.38
2023-01-02T00:55:58.001Z,10.38
2023-01-02T00:56:32.594Z,10.38
2023-01-02T00:56:55.153Z,10.38
2023-01-02T00:57:17.872Z,10.38
2023-01-02T00:57:52.794Z,10.22
2023-01-02T00:58:25.281Z,10.27
2023-01-02T00:58:57.697Z,10.27
2023-01-02T00:59:27.131Z,10.27
2023-01-02T00:59:58.287Z,10.27
2023-01-02T01:00:32.877Z,10.27
2023-01-02T01:00:55.486Z,10.27
2023-01-02T01:01:18.343Z,10.27
2023-01-02T01:01:52.760Z,10.27
2023-01-02T01:02:24.309Z,10.22
2023-01-02T01:02:56.537Z,10.22
2023-01-02T01:03:25.958Z,10.22
2023-01-02T01:03:57.870Z,10.22
2023-01-02T01:04:32.952Z,10.22
2023-01-02T01:04:55.399Z,10.22
2023-01-02T01:05:18.888Z,10.22
2023-01-02T01:05:52.184Z,10.22
2023-01-02T01:06:24.203Z,10.22
2023-01-02T01:06:56.245Z,10.22
2023-01-02T01:07:27.978Z,10.27
2023-01-02T01:07:57.597Z,10.27
2023-01-02T01:08:33.397Z,10.27
2023-01-02T01:08:55.764Z,10.27
2023-01-02T01:09:18.311Z,10.27
2023-01-02T01:09:53.178Z,10.27
2023-01-02T01:10:24.606Z,10.27
2023-01-02T01:10:56.312Z,10.27
2023-01-02T01:11:26.157Z,10.27
2023-01-02T01:12:04.692Z,10.27
2023-01-02T01:12:32.578Z,10.27
2023-01-02T01:12:55.091Z,10.27
2023-01-02T01:13:17.856Z,10.27
2023-01-02T01:13:52.338Z,10.27
2023-01-02T01:14:25.067Z,10.27
2023-01-02T01:14:56.166Z,10.11
2023-01-02T01:15:25.819Z,10.22
2023-01-02T01:15:57.499Z,10.22
2023-01-02T01:16:33.568Z,10.22
2023-01-02T01:16:56.252Z,10.22
2023-01-02T01:17:21.688Z,10.22
2023-01-02T01:17:53.183Z,10.22
2023-01-02T01:18:24.255Z,10.22
2023-01-02T01:18:56.148Z,10.22
2023-01-02T01:19:25.882Z,10.22
2023-01-02T01:19:57.564Z,10.22
2023-01-02T01:20:32.209Z,10.22
2023-01-02T01:20:54.780Z,10.22
2023-01-02T01:21:18.520Z,10.00
2023-01-02T01:21:52.867Z,10.00
2023-01-02T01:22:25.657Z,10.11
2023-01-02T01:22:56.989Z,10.22
2023-01-02T01:23:29.210Z,10.27
2023-01-02T01:24:00.374Z,10.27
2023-01-02T01:24:32.438Z,10.27
2023-01-02T01:24:55.049Z,10.27
2023-01-02T01:25:17.389Z,10.27
2023-01-02T01:25:52.484Z,10.38
2023-01-02T01:26:24.227Z,10.27
2023-01-02T01:26:56.429Z,10.27
2023-01-02T01:27:25.848Z,10.38
2023-01-02T01:28:00.948Z,10.50
2023-01-02T01:28:32.269Z,10.27
2023-01-02T01:28:54.905Z,10.38
2023-01-02T01:29:17.650Z,10.38
2023-01-02T01:29:52.262Z,10.38
2023-01-02T01:30:24.749Z,10.38
2023-01-02T01:30:56.373Z,10.38
2023-01-02T01:31:25.855Z,10.38
2023-01-02T01:31:57.508Z,10.38
2023-01-02T01:32:35.042Z,10.38
2023-01-02T01:32:56.074Z,10.38
2023-01-02T01:33:19.666Z,10.38
2023-01-02T01:33:53.326Z,10.38
2023-01-02T01:34:24.374Z,10.38
2023-01-02T01:34:56.760Z,10.38
2023-01-02T01:35:28.473Z,10.38
2023-01-02T01:35:57.625Z,10.50
2023-01-02T01:36:32.175Z,10.50
2023-01-02T01:36:54.809Z,10.50
2023-01-02T01:37:17.288Z,10.50
2023-01-02T01:37:52.242Z,10.50
2023-01-02T01:38:24.549Z,10.50
2023-01-02T01:38:56.160Z,10.50
2023-01-02T01:39:26.268Z,10.50
2023-01-02T01:39:57.460Z,10.50
2023-01-02T01:40:33.530Z,10.61
2023-01-02T01:40:55.585Z,10.61
2023-01-02T01:41:17.972Z,10.61
2023-01-02T01:41:54.213Z,10.61
2023-01-02T01:42:24.102Z,10.61
2023-01-02T01:43:00.879Z,10.61
2023-01-02T01:43:26.256Z,10.61
2023-01-02T01:43:57.479Z,10.61
2023-01-02T01:44:32.231Z,10.61
2023-01-02T01:44:54.853Z,10.77
2023-01-02T01:45:17.465Z,10.61
2023-01-02T01:45:52.295Z,10.61
2023-01-02T01:46:24.623Z,10.50
2023-01-02T01:46:58.825Z,10.72
2023-01-02T01:47:28.765Z,10.72
2023-01-02T01:48:00.265Z,10.72
2023-01-02T01:48:32.446Z,10.72
2023-01-02T01:48:55.216Z,10.72
2023-01-02T01:49:17.882Z,10.72
2023-01-02T01:49:53.833Z,10.72
2023-01-02T01:50:24.427Z,10.61
2023-01-02T01:50:56.405Z,10.50
2023-01-02T01:51:25.914Z,10.50
2023-01-02T01:52:00.723Z,10.50
2023-01-02T01:52:32.226Z,10.50
2023-01-02T01:52:54.864Z,10.50
2023-01-02T01:53:17.707Z,10.50
2023-01-02T01:53:52.644Z,10.50
2023-01-02T01:54:24.320Z,10.61
2023-01-02T01:54:56.357Z,10.61
2023-01-02T01:55:25.907Z,10.61
2023-01-02T01:56:00.309Z,10.61
2023-01-02T01:56:32.228Z,10.50
2023-01-02T01:56:55.126Z,10.50
2023-01-02T01:57:17.768Z,10.50
2023-01-02T01:57:52.689Z,10.50
2023-01-02T01:58:24.632Z,10.50
2023-01-02T01:58:57.473Z,10.61
2023-01-02T01:59:28.519Z,10.38
2023-01-02T02:00:01.982Z,10.38
2023-01-02T02:00:32.213Z,10.61
2023-01-02T02:00:54.958Z,10.61
2023-01-02T02:01:36.565Z,10.61
2023-01-02T02:01:59.290Z,10.61
2023-01-02T02:02:40.469Z,10.61
2023-01-02T02:03:05.375Z,10.61
2023-01-02T02:03:27.705Z,10.61
2023-01-02T02:04:00.214Z,10.61
2023-01-02T02:04:32.329Z,10.61
2023-01-02T02:04:55.838Z,10.61
2023-01-02T02:05:18.264Z,10.61
2023-01-02T02:05:52.239Z,10.61
2023-01-02T02:06:24.352Z,10.50
2023-01-02T02:06:56.170Z,10.50
2023-01-02T02:07:28.485Z,10.50
2023-01-02T02:08:00.149Z,10.50
2023-01-02T02:09:20.596Z,10.27
2023-01-02T02:09:52.219Z,10.61
2023-01-02T02:10:24.217Z,10.61
2023-01-02T02:10:56.181Z,10.61
2023-01-02T02:11:27.149Z,10.61
2023-01-02T02:11:58.501Z,10.61
2023-01-02T02:12:36.416Z,10.50
2023-01-02T02:12:56.814Z,10.61
2023-01-02T02:13:21.130Z,10.61
2023-01-02T02:13:52.569Z,10.50
2023-01-02T02:14:25.448Z,10.38
2023-01-02T02:14:56.771Z,10.38
2023-01-02T02:15:29.527Z,10.38
2023-01-02T02:16:00.929Z,10.38
2023-01-02T02:16:34.212Z,10.38
2023-01-02T02:16:55.539Z,10.38
2023-01-02T02:17:18.652Z,10.38
2023-01-02T02:17:54.432Z,10.38
2023-01-02T02:18:32.180Z,10.50
2023-01-02T02:18:53.442Z,10.50
2023-01-02T02:19:26.093Z,10.50
2023-01-02T02:20:00.371Z,10.50
2023-01-02T02:20:32.427Z,10.50
2023-01-02T02:20:55.149Z,10.50
2023-01-02T02:21:17.765Z,10.50
2023-01-02T02:21:52.098Z,10.50
2023-01-02T02:22:24.450Z,10.38
2023-01-02T02:22:56.353Z,10.38
2023-01-02T02:23:25.848Z,10.38
2023-01-02T02:24:00.202Z,10.38
2023-01-02T02:24:32.327Z,10.38
2023-01-02T02:24:56.770Z,10.38
2023-01-02T02:25:19.401Z,10.38
2023-01-02T02:25:52.228Z,10.38
2023-01-02T02:26:24.173Z,10.38
2023-01-02T02:26:56.184Z,10.38
2023-01-02T02:27:25.973Z,10.38
2023-01-02T02:28:00.298Z,10.50
2023-01-02T02:28:32.954Z,10.50
2023-01-02T02:28:55.200Z,10.50
2023-01-02T02:29:17.708Z,10.50
2023-01-02T02:29:52.259Z,10.38
2023-01-02T02:30:24.636Z,10.38
2023-01-02T02:30:56.341Z,10.38
2023-01-02T02:31:26.077Z,10.38
2023-01-02T02:32:00.243Z,10.38
2023-01-02T02:32:33.997Z,10.38
2023-01-02T02:32:57.118Z,10.38
2023-01-02T02:33:19.421Z,10.38
2023-01-02T02:33:52.244Z,10.38
2023-01-02T02:34:25.204Z,10.38
2023-01-02T02:34:56.388Z,10.38
2023-01-02T02:35:26.473Z,10.38
2023-01-02T02:36:01.269Z,10.38
2023-01-02T02:36:32.786Z,10.38
2023-01-02T02:36:56.641Z,10.38
2023-01-02T02:37:18.956Z,10.38
2023-01-02T02:37:52.912Z,10.38
2023-01-02T02:38:25.244Z,10.38
2023-01-02T02:38:57.254Z,10.27
2023-01-02T02:39:35.391Z,10.27
2023-01-02T02:39:54.928Z,10.27
2023-01-02T02:40:27.058Z,10.27
2023-01-02T02:40:57.421Z,10.27
2023-01-02T02:41:19.303Z,10.22
2023-01-02T02:41:48.621Z,10.22
2023-01-02T02:42:29.638Z,10.27
2023-01-02T02:43:01.289Z,10.27
2023-01-02T02:43:26.481Z,10.50
2023-01-02T02:44:06.936Z,10.50
2023-01-02T02:44:29.045Z,10.50
2023-01-02T02:44:53.094Z,10.50
2023-01-02T02:45:15.800Z,10.50
2023-01-02T02:45:52.307Z,10.50
2023-01-02T02:46:24.224Z,10.50
2023-01-02T02:46:56.175Z,10.50
2023-01-02T02:47:28.583Z,10.27
2023-01-02T02:48:00.395Z,10.27
2023-01-02T02:48:31.992Z,10.27
2023-01-02T02:49:26.501Z,10.27
2023-01-02T02:49:32.972Z,10.50
2023-01-02T02:49:55.472Z,10.50
2023-01-02T02:50:42.325Z,10.27
2023-01-02T02:51:17.462Z,10.27
2023-01-02T02:51:44.752Z,10.27
2023-01-02T02:52:07.391Z,10.27
2023-01-02T02:52:29.772Z,10.38
2023-01-02T02:52:52.608Z,10.38
2023-01-02T02:53:54.101Z,10.38
2023-01-02T02:54:25.529Z,10.38
2023-01-02T02:54:56.182Z,10.22
2023-01-02T02:55:26.947Z,10.22
2023-01-02T02:56:00.153Z,10.22
2023-01-02T02:56:32.134Z,10.27
2023-01-02T02:56:56.457Z,10.38
2023-01-02T02:57:17.193Z,10.61
2023-01-02T02:57:53.090Z,10.61
2023-01-02T02:58:24.227Z,10.61
2023-01-02T02:58:56.185Z,10.61
2023-01-02T02:59:26.299Z,10.50
2023-01-02T03:00:00.352Z,10.72
2023-01-02T03:00:32.884Z,10.50
2023-01-02T03:00:55.814Z,10.50
2023-01-02T03:01:18.523Z,10.50
2023-01-02T03:02:04.981Z,10.50
2023-01-02T03:02:42.768Z,10.50
2023-01-02T03:03:08.813Z,10.50
2023-01-02T03:03:30.129Z,10.50
2023-01-02T03:04:00.359Z,10.50
2023-01-02T03:04:32.240Z,10.50
2023-01-02T03:04:55.237Z,10.50
2023-01-02T03:05:17.679Z,10.50
2023-01-02T03:05:52.485Z,10.50
2023-01-02T03:06:24.195Z,10.50
2023-01-02T03:06:55.983Z,10.50
2023-01-02T03:07:30.615Z,10.50
2023-01-02T03:07:59.979Z,10.50
2023-01-02T03:08:34.678Z,10.50
2023-01-02T03:08:55.156Z,10.50
2023-01-02T03:09:18.025Z,10.50
2023-01-02T03:09:52.102Z,10.50
2023-01-02T03:10:24.157Z,10.72
2023-01-02T03:10:56.130Z,10.72
2023-01-02T03:11:25.789Z,10.50
2023-01-02T03:12:00.129Z,10.50
2023-01-02T03:12:31.996Z,10.50
2023-01-02T03:12:54.851Z,10.50
2023-01-02T03:13:17.391Z,10.50
2023-01-02T03:13:52.090Z,10.50
2023-01-02T03:14:24.169Z,10.50
2023-01-02T03:14:56.057Z,10.50
2023-01-02T03:15:26.399Z,10.27
2023-01-02T03:16:00.516Z,10.50
2023-01-02T03:16:32.010Z,10.50
2023-01-02T03:16:54.717Z,10.50
2023-01-02T03:17:17.304Z,10.50
2023-01-02T03:17:52.163Z,10.50
2023-01-02T03:18:24.066Z,10.50
2023-01-02T03:18:56.097Z,10.50
2023-01-02T03:19:26.219Z,10.50
2023-01-02T03:20:00.215Z,10.50
2023-01-02T03:20:32.067Z,10.72
2023-01-02T03:20:55.312Z,10.61
2023-01-02T03:21:17.648Z,10.61
2023-01-02T03:21:53.744Z,10.61
2023-01-02T03:22:25.504Z,10.50
2023-01-02T03:22:56.117Z,10.50
2023-01-02T03:23:28.199Z,10.50
2023-01-02T03:24:00.024Z,10.50
2023-01-02T03:24:32.697Z,10.50
2023-01-02T03:24:54.903Z,10.50
2023-01-02T03:25:17.363Z,10.50
2023-01-02T03:25:52.324Z,10.50
2023-01-02T03:26:24.218Z,10.50
2023-01-02T03:26:55.967Z,10.50
2023-01-02T03:27:25.780Z,10.38
2023-01-02T03:28:00.054Z,10.38
2023-01-02T03:28:32.110Z,10.38
2023-01-02T03:28:54.894Z,10.38
2023-01-02T03:29:17.315Z,10.38
2023-01-02T03:29:52.428Z,10.38
2023-01-02T03:30:24.387Z,10.38
2023-01-02T03:30:56.143Z,10.38
2023-01-02T03:31:25.835Z,10.38
2023-01-02T03:32:00.159Z,10.38
2023-01-02T03:32:32.157Z,10.38
2023-01-02T03:32:55.437Z,10.38
2023-01-02T03:33:17.206Z,10.38
2023-01-02T03:33:51.962Z,10.38
2023-01-02T03:34:24.185Z,10.38
2023-01-02T03:34:56.317Z,10.38
2023-01-02T03:35:25.808Z,10.38
2023-01-02T03:36:00.113Z,10.38
2023-01-02T03:36:32.117Z,10.38
2023-01-02T03:36:54.873Z,10.38
2023-01-02T03:37:17.433Z,10.38
2023-01-02T03:37:52.213Z,10.38
2023-01-02T03:38:24.123Z,10.38
2023-01-02T03:38:55.973Z,10.38
2023-01-02T03:39:25.888Z,10.38
2023-01-02T03:40:00.167Z,10.38
2023-01-02T03:40:31.946Z,10.38
2023-01-02T03:40:54.714Z,10.38
2023-01-02T03:41:17.189Z,10.38
2023-01-02T03:41:52.055Z,10.38
2023-01-02T03:42:23.955Z,10.38
2023-01-02T03:42:56.078Z,10.38
2023-01-02T03:43:25.940Z,10.38
2023-01-02T03:44:00.119Z,10.38
2023-01-02T03:44:32.007Z,10.38
2023-01-02T03:44:54.861Z,10.38
2023-01-02T03:45:17.324Z,10.38
2023-01-02T03:45:52.204Z,10.38
2023-01-02T03:46:24.257Z,10.38
2023-01-02T03:46:56.083Z,10.38
2023-01-02T03:47:27.213Z,10.38
2023-01-02T03:48:00.607Z,10.38
2023-01-02T03:48:31.978Z,10.27
2023-01-02T03:48:54.691Z,10.27
2023-01-02T03:49:17.458Z,10.27
2023-01-02T03:49:52.093Z,10.38
2023-01-02T03:50:24.012Z,10.38
2023-01-02T03:50:56.087Z,10.38
2023-01-02T03:51:25.757Z,10.38
2023-01-02T03:52:00.112Z,10.38
2023-01-02T03:52:35.425Z,10.38
2023-01-02T03:52:55.057Z,10.38
2023-01-02T03:53:17.450Z,10.38
2023-01-02T03:53:52.200Z,10.38
2023-01-02T03:54:24.696Z,10.38
2023-01-02T03:54:56.000Z,10.50
2023-01-02T03:55:33.831Z,10.50
2023-01-02T03:56:00.529Z,10.38
2023-01-02T03:56:32.026Z,10.38
2023-01-02T03:56:57.018Z,10.38
2023-01-02T03:57:23.436Z,10.38
2023-01-02T03:57:57.004Z,10.38
2023-01-02T03:58:24.474Z,10.38
2023-01-02T03:58:56.580Z,10.38
2023-01-02T03:59:25.983Z,10.38
2023-01-02T04:00:00.197Z,10.38
2023-01-02T04:00:32.001Z,10.38
2023-01-02T04:00:54.957Z,10.27
2023-01-02T04:01:18.855Z,10.27
2023-01-02T04:01:52.223Z,10.27
2023-01-02T04:02:24.249Z,10.38
2023-01-02T04:02:56.152Z,10.38
2023-01-02T04:03:28.316Z,10.38
2023-01-02T04:04:00.446Z,10.27
2023-01-02T04:04:32.131Z,10.11
2023-01-02T04:04:54.820Z,10.11
2023-01-02T04:05:17.293Z,10.38
2023-01-02T04:05:52.081Z,10.38
2023-01-02T04:06:24.395Z,10.38
2023-01-02T04:06:55.999Z,10.38
2023-01-02T04:07:26.034Z,10.38
2023-01-02T04:07:59.988Z,10.38
2023-01-02T04:08:33.924Z,10.38
2023-01-02T04:08:56.946Z,10.38
2023-01-02T04:09:37.438Z,10.38
2023-01-02T04:09:59.815Z,10.38
2023-01-02T04:10:22.191Z,10.50
2023-01-02T04:10:58.542Z,10.50
2023-01-02T04:11:25.912Z,10.50
2023-01-02T04:12:00.149Z,10.27
2023-01-02T04:12:32.067Z,10.27
2023-01-02T04:12:55.041Z,10.27
2023-01-02T04:13:17.473Z,10.50
2023-01-02T04:13:52.061Z,10.50
2023-01-02T04:14:24.160Z,10.50
2023-01-02T04:14:56.136Z,10.50
2023-01-02T04:15:28.666Z,10.50
2023-01-02T04:16:00.076Z,10.27
2023-01-02T04:16:32.106Z,10.50
2023-01-02T04:16:55.002Z,10.27
2023-01-02T04:17:17.518Z,10.27
2023-01-02T04:17:52.247Z,10.50
2023-01-02T04:18:24.109Z,10.50
2023-01-02T04:18:56.640Z,10.50
2023-01-02T04:19:28.101Z,10.50
2023-01-02T04:19:59.992Z,10.50
2023-01-02T04:20:32.020Z,10.50
2023-01-02T04:20:54.714Z,10.50
2023-01-02T04:21:16.964Z,10.50
2023-01-02T04:21:52.134Z,10.38
2023-01-02T04:22:24.139Z,10.50
2023-01-02T04:22:56.173Z,10.50
2023-01-02T04:23:28.074Z,10.50
2023-01-02T04:23:59.950Z,10.50
2023-01-02T04:24:31.927Z,10.50
2023-01-02T04:24:54.830Z,10.50
2023-01-02T04:25:17.069Z,10.50
2023-01-02T04:25:52.085Z,10.50
2023-01-02T04:26:24.225Z,10.50
2023-01-02T04:26:56.011Z,10.50
2023-01-02T04:27:25.877Z,10.50
2023-01-02T04:28:00.214Z,10.50
2023-01-02T04:28:32.293Z,10.50
2023-01-02T04:28:54.929Z,10.50
2023-01-02T04:29:17.364Z,10.50
2023-01-02T04:29:52.098Z,10.50
2023-01-02T04:30:24.683Z,10.50
2023-01-02T04:30:56.116Z,10.50
2023-01-02T04:31:25.824Z,10.50
2023-01-02T04:31:59.999Z,10.38
2023-01-02T04:32:32.611Z,10.38
2023-01-02T04:32:57.120Z,10.38
2023-01-02T04:33:18.004Z,10.61
2023-01-02T04:33:52.366Z,10.61
2023-01-02T04:34:23.964Z,10.61
2023-01-02T04:34:56.060Z,10.61
2023-01-02T04:35:28.175Z,10.50
2023-01-02T04:36:00.034Z,10.50
2023-01-02T04:36:31.961Z,10.50
2023-01-02T04:36:54.657Z,10.50
2023-01-02T04:37:17.019Z,10.50
2023-01-02T04:37:52.185Z,10.38
2023-01-02T04:38:24.091Z,10.38
2023-01-02T04:38:56.029Z,10.61
2023-01-02T04:39:25.783Z,10.61
2023-01-02T04:39:59.960Z,10.61
2023-01-02T04:40:32.092Z,10.61
2023-01-02T04:40:55.593Z,10.61
2023-01-02T04:41:18.139Z,10.50
2023-01-02T04:41:51.970Z,10.50
2023-01-02T04:42:24.027Z,10.50
2023-01-02T04:42:55.929Z,10.50
2023-01-02T04:43:25.759Z,10.50
2023-01-02T04:44:00.082Z,10.50
2023-01-02T04:44:32.301Z,10.50
2023-01-02T04:44:55.476Z,10.50
2023-01-02T04:45:18.069Z,10.50
2023-01-02T04:45:55.630Z,10.38
2023-01-02T04:46:24.183Z,10.38
2023-01-02T04:46:56.141Z,10.38
2023-01-02T04:47:27.483Z,10.38
2023-01-02T04:48:00.094Z,10.38
2023-01-02T04:48:32.157Z,10.38
2023-01-02T04:48:55.022Z,10.38
2023-01-02T04:49:17.505Z,10.38
2023-01-02T04:49:51.999Z,10.38
2023-01-02T04:50:24.054Z,10.38
2023-01-02T04:50:56.133Z,10.38
2023-01-02T04:51:25.946Z,10.38
2023-01-02T04:52:00.170Z,10.38
2023-01-02T04:52:36.860Z,10.50
2023-01-02T04:52:55.027Z,10.50
2023-01-02T04:53:17.335Z,10.50
2023-01-02T04:53:52.580Z,10.50
2023-01-02T04:54:24.202Z,10.50
2023-01-02T04:54:55.953Z,10.50
2023-01-02T04:55:25.779Z,10.50
2023-01-02T04:56:00.210Z,10.50
2023-01-02T04:56:32.115Z,10.50
2023-01-02T04:56:55.534Z,10.50
2023-01-02T04:57:23.455Z,10.50
2023-01-02T04:57:52.256Z,10.50
2023-01-02T04:58:23.996Z,10.50
2023-01-02T04:58:56.106Z,10.50
2023-01-02T04:59:28.264Z,10.27
2023-01-02T05:00:00.107Z,10.27
2023-01-02T05:00:32.490Z,10.27
2023-01-02T05:00:54.901Z,10.27
2023-01-02T05:01:17.369Z,10.27
2023-01-02T05:01:52.169Z,10.38
2023-01-02T05:02:24.247Z,10.38
2023-01-02T05:02:56.031Z,10.38
2023-01-02T05:03:25.950Z,10.38
2023-01-02T05:04:00.288Z,10.38
2023-01-02T05:04:32.007Z,10.38
2023-01-02T05:04:54.883Z,10.38
2023-01-02T05:05:17.348Z,10.38
2023-01-02T05:05:52.339Z,10.38
2023-01-02T05:06:24.267Z,10.38
2023-01-02T05:06:56.268Z,10.27
2023-01-02T05:07:28.373Z,10.50
2023-01-02T05:08:00.035Z,10.50
2023-01-02T05:08:33.486Z,10.50
2023-01-02T05:08:55.405Z,10.50
2023-01-02T05:09:17.736Z,10.50
2023-01-02T05:09:52.026Z,10.38
2023-01-02T05:10:24.025Z,10.38
2023-01-02T05:10:56.432Z,10.38
2023-01-02T05:12:01.038Z,10.61
2023-01-02T05:12:32.148Z,10.50
2023-01-02T05:12:58.722Z,10.50
2023-01-02T05:13:18.721Z,10.50
2023-01-02T05:13:52.016Z,10.50
2023-01-02T05:14:26.599Z,10.38
2023-01-02T05:14:55.932Z,10.61
2023-01-02T05:15:28.748Z,10.61
2023-01-02T05:16:03.610Z,10.38
2023-01-02T05:16:32.197Z,10.27
2023-01-02T05:16:55.675Z,10.27
2023-01-02T05:17:21.455Z,10.27
2023-01-02T05:17:52.057Z,10.11
2023-01-02T05:18:24.184Z,10.22
2023-01-02T05:18:58.870Z,10.22
2023-01-02T05:19:24.918Z,10.27
2023-01-02T05:20:05.592Z,10.27
2023-01-02T05:20:32.284Z,10.22
2023-01-02T05:20:54.963Z,10.22
2023-01-02T05:21:21.503Z,10.27
2023-01-02T05:21:54.573Z,10.27
2023-01-02T05:22:25.590Z,10.11
2023-01-02T05:22:56.434Z,10.22
2023-01-02T05:23:27.948Z,10.22
2023-01-02T05:24:02.351Z,10.22
2023-01-02T05:24:37.936Z,10.22
2023-01-02T05:24:57.210Z,10.22
2023-01-02T05:25:24.196Z,10.22
2023-01-02T05:25:53.120Z,10.22
2023-01-02T05:26:25.563Z,10.22
2023-01-02T05:27:01.280Z,10.22
2023-01-02T05:27:28.863Z,10.00
2023-01-02T05:28:05.688Z,10.11
2023-01-02T05:28:25.932Z,10.27
2023-01-02T05:29:00.443Z,10.27
2023-01-02T05:29:20.595Z,10.27
2023-01-02T05:29:52.816Z,10.11
2023-01-02T05:30:29.733Z,10.11
2023-01-02T05:31:04.430Z,10.11
2023-01-02T05:31:28.212Z,10.11
2023-01-02T05:32:00.545Z,10.11
2023-01-02T05:32:36.887Z,10.22
2023-01-02T05:32:54.701Z,10.22
2023-01-02T05:33:19.864Z,10.22
2023-01-02T05:33:55.375Z,10.22
2023-01-02T05:34:24.051Z,10.22
2023-01-02T05:34:52.374Z,10.22
2023-01-02T05:35:32.507Z,10.22
2023-01-02T05:36:02.884Z,10.22
2023-01-02T05:36:32.225Z,10.22
2023-01-02T05:36:57.729Z,10.22
2023-01-02T05:37:18.866Z,10.00
2023-01-02T05:37:54.602Z,10.00
2023-01-02T05:38:25.879Z,10.11
2023-01-02T05:39:00.779Z,10.11
2023-01-02T05:39:30.722Z,10.11
2023-01-02T05:40:07.068Z,10.11
2023-01-02T05:40:27.283Z,10.11
2023-01-02T05:40:58.456Z,10.11
2023-01-02T05:41:25.366Z,10.11
2023-01-02T05:42:01.985Z,10.11
2023-01-02T05:42:28.347Z,10.11
2023-01-02T05:42:56.900Z,10.11
2023-01-02T05:43:30.721Z,10.11
2023-01-02T05:44:05.764Z,10.11
2023-01-02T05:44:26.419Z,10.11
2023-01-02T05:45:02.624Z,10.11
2023-01-02T05:45:42.240Z,10.11
2023-01-02T05:46:02.278Z,10.11
2023-01-02T05:46:40.309Z,10.11
2023-01-02T05:47:06.013Z,10.11
2023-01-02T05:47:27.511Z,10.11
2023-01-02T05:48:01.600Z,10.11
2023-01-02T05:48:34.792Z,10.11
2023-01-02T05:48:55.562Z,10.11
2023-01-02T05:49:21.708Z,10.11
2023-01-02T05:49:57.749Z,10.00
2023-01-02T05:50:24.016Z,10.00
2023-01-02T05:50:57.304Z,10.00
2023-01-02T05:51:24.714Z,10.00
2023-01-02T05:52:07.688Z,10.00
2023-01-02T05:52:25.891Z,10.00
2023-01-02T05:53:00.728Z,10.00
2023-01-02T05:53:26.573Z,10.11
2023-01-02T05:53:45.867Z,10.11
2023-01-02T05:54:26.617Z,10.11
2023-01-02T05:54:56.021Z,10.11
2023-01-02T05:55:32.632Z,10.11
2023-01-02T05:56:00.881Z,10.11
2023-01-02T05:56:28.230Z,10.11
2023-01-02T05:57:04.029Z,10.00
2023-01-02T05:57:38.637Z,10.00
2023-01-02T05:58:00.540Z,10.00
2023-01-02T05:58:22.049Z,10.11
2023-01-02T05:58:57.669Z,9.88
2023-01-02T05:59:36.069Z,9.88
2023-01-02T06:00:03.426Z,10.00
2023-01-02T06:00:33.230Z,10.00
2023-01-02T06:00:59.139Z,10.11
2023-01-02T06:01:18.069Z,10.11
2023-01-02T06:01:55.443Z,10.11
2023-01-02T06:02:28.797Z,10.11
2023-01-02T06:02:50.144Z,10.11
2023-01-02T06:03:28.691Z,10.00
2023-01-02T06:04:00.917Z,10.00
2023-01-02T06:04:34.259Z,10.00
2023-01-02T06:04:58.989Z,10.11
2023-01-02T06:05:19.681Z,9.88
2023-01-02T06:05:52.094Z,9.88
2023-01-02T06:06:24.338Z,9.88
2023-01-02T06:06:59.401Z,10.22
2023-01-02T06:07:28.257Z,10.22
2023-01-02T06:08:01.734Z,10.00
2023-01-02T06:08:50.734Z,10.00
2023-01-02T06:09:16.647Z,10.00
2023-01-02T06:09:52.942Z,10.00
2023-01-02T06:10:26.110Z,10.11
2023-01-02T06:10:57.536Z,10.11
2023-01-02T06:11:33.870Z,10.11
2023-01-02T06:11:55.012Z,10.11
2023-01-02T06:12:27.344Z,10.11
2023-01-02T06:12:57.511Z,10.11
2023-01-02T06:13:22.211Z,10.11
2023-01-02T06:13:52.485Z,10.27
2023-01-02T06:14:28.756Z,10.00
2023-01-02T06:14:58.494Z,10.22
2023-01-02T06:15:32.107Z,10.22
2023-01-02T06:16:01.759Z,10.22
2023-01-02T06:16:37.869Z,10.00
2023-01-02T06:17:05.317Z,10.22
2023-01-02T06:17:37.244Z,10.22
2023-01-02T06:17:59.970Z,10.22
2023-01-02T06:18:27.471Z,10.22
2023-01-02T06:19:03.790Z,10.22
2023-01-02T06:19:30.026Z,10.00
2023-01-02T06:20:05.628Z,10.00
2023-01-02T06:20:34.420Z,10.22
2023-01-02T06:20:54.866Z,10.22
2023-01-02T06:21:18.427Z,10.22
2023-01-02T06:21:53.662Z,10.22
2023-01-02T06:22:28.873Z,10.22
2023-01-02T06:22:57.952Z,10.22
2023-01-02T06:23:34.507Z,10.11
2023-01-02T06:23:54.234Z,10.11
2023-01-02T06:24:26.818Z,10.11
2023-01-02T06:25:04.066Z,10.11
2023-01-02T06:25:39.358Z,10.11
2023-01-02T06:26:02.034Z,10.11
2023-01-02T06:26:23.488Z,10.11
2023-01-02T06:26:57.061Z,10.27
2023-01-02T06:27:25.052Z,10.27
2023-01-02T06:28:05.152Z,10.11
2023-01-02T06:28:32.418Z,10.11
2023-01-02T06:28:57.812Z,10.27